Flin Flon, Canada
Current Conditions -  °F | °C
As of 6:00 PM on Friday 19 Dec 2014 (Local Time) from CYQD Reporting Station
Light Snow Light Snow  
Wind Chill: 10°   Ceiling: 1000
Heat Index: 19°   Visibility: 3mi
Dew Point: 18°   Wind: 7mph
Humidity: 93%   Direction: 150°SSE
Pressure: 30"   Gusts: NA
Location:  54.77°N, 101.88°W
Report Text: CYQD 200000Z 15006KT 3SM -FZDZ -SG BR OVC010 M07/M08 A3000 RMK ST8 -SG INTMT FROIN SLP181
Loading
Personal Weather Stations






























Interactive Weather Map New forecast layout! Learn more

10-Day Weather Forecast

Advertisements
Track Severe Weather on mobile